Time;durP1;ratioP1;P1;durP2;ratioP2;P2;SDS_P1;SDS_P2;PMS_P1;PMS_P2;Temp;Humidity;BMP_temperature;BMP_pressure;BME280_temperature;BME280_humidity;BME280_pressure;Samples;Min_cycle;Max_cycle;Signal;HPM_P1;HPM_P2
2021/08/06 00:01:52;;;;;;;2.67;1.23;;;;;;;;;;10470605;28;20592;-71
2021/08/06 00:06:56;;;;;;;3.33;1.53;;;;;;;;;;10473670;28;20654;-71
2021/08/06 00:11:59;;;;;;;2.63;1.30;;;;;;;;;;10477283;28;20620;-70
2021/08/06 00:17:02;;;;;;;2.23;1.20;;;;;;;;;;10472717;28;20220;-74
2021/08/06 00:22:06;;;;;;;1.40;1.10;;;;;;;;;;10474691;28;20205;-72
2021/08/06 00:27:08;;;;;;;1.87;1.40;;;;;;;;;;10477645;28;20749;-71
2021/08/06 00:32:11;;;;;;;3.07;1.30;;;;;;;;;;10482047;28;20220;-73
2021/08/06 00:37:15;;;;;;;2.53;1.40;;;;;;;;;;10481364;28;20687;-71
2021/08/06 00:42:17;;;;;;;2.57;1.40;;;;;;;;;;10479483;28;20208;-72
2021/08/06 00:47:20;;;;;;;2.37;1.40;;;;;;;;;;10479211;28;20303;-70
2021/08/06 00:52:24;;;;;;;4.43;1.67;;;;;;;;;;10484046;28;20250;-69
2021/08/06 00:57:27;;;;;;;4.87;1.73;;;;;;;;;;10473815;28;20224;-71
2021/08/06 01:02:32;;;;;;;1.97;1.33;;;;;;;;;;10473909;28;20597;-71
2021/08/06 01:07:42;;;;;;;3.60;1.50;;;;;;;;;;10468916;28;20224;-71
2021/08/06 01:12:50;;;;;;;2.60;1.40;;;;;;;;;;10474758;28;20208;-72
2021/08/06 01:17:57;;;;;;;2.67;1.40;;;;;;;;;;10478869;28;20318;-70
2021/08/06 01:23:03;;;;;;;2.23;1.40;;;;;;;;;;10469986;28;20258;-70
2021/08/06 01:28:07;;;;;;;3.60;1.50;;;;;;;;;;10475886;28;20295;-70
2021/08/06 01:33:10;;;;;;;2.50;1.47;;;;;;;;;;10472783;28;20287;-71
2021/08/06 01:38:13;;;;;;;2.70;1.40;;;;;;;;;;10474754;28;20204;-69
2021/08/06 01:43:20;;;;;;;3.50;1.53;;;;;;;;;;10474800;28;20220;-70
2021/08/06 01:48:28;;;;;;;3.43;1.50;;;;;;;;;;10479398;28;20224;-72
2021/08/06 01:53:30;;;;;;;2.90;1.40;;;;;;;;;;10469421;28;20734;-71
2021/08/06 01:58:35;;;;;;;4.43;1.80;;;;;;;;;;10473537;28;20227;-72
2021/08/06 02:03:37;;;;;;;3.73;1.60;;;;;;;;;;10468318;28;20192;-70
2021/08/06 02:08:40;;;;;;;2.70;1.40;;;;;;;;;;10476834;28;20270;-71
2021/08/06 02:13:44;;;;;;;3.10;1.47;;;;;;;;;;10474412;28;20266;-72
2021/08/06 02:18:48;;;;;;;3.80;1.50;;;;;;;;;;10486007;28;20215;-72
2021/08/06 02:23:53;;;;;;;2.17;1.50;;;;;;;;;;10458482;28;20293;-70
2021/08/06 02:28:57;;;;;;;2.77;1.47;;;;;;;;;;10455003;28;20217;-73
2021/08/06 02:34:00;;;;;;;2.90;1.80;;;;;;;;;;10456883;28;20206;-72
2021/08/06 02:39:07;;;;;;;2.67;1.50;;;;;;;;;;10466191;28;20299;-72
2021/08/06 02:44:11;;;;;;;2.83;1.40;;;;;;;;;;10464247;28;20295;-69
2021/08/06 02:49:13;;;;;;;3.03;1.50;;;;;;;;;;10464131;28;20261;-72
2021/08/06 02:54:16;;;;;;;2.97;1.60;;;;;;;;;;10465439;28;20205;-71
2021/08/06 02:59:20;;;;;;;4.40;1.80;;;;;;;;;;10478513;28;20685;-72
2021/08/06 03:04:22;;;;;;;5.90;2.10;;;;;;;;;;10481745;28;20197;-71
2021/08/06 03:09:25;;;;;;;4.53;2.10;;;;;;;;;;10457098;28;20236;-69
2021/08/06 03:14:29;;;;;;;5.03;2.20;;;;;;;;;;10463060;28;20184;-72
2021/08/06 03:19:32;;;;;;;4.87;2.07;;;;;;;;;;10483381;28;20244;-71
2021/08/06 03:24:35;;;;;;;4.20;1.80;;;;;;;;;;10469936;28;20610;-70
2021/08/06 03:29:38;;;;;;;3.27;1.60;;;;;;;;;;10476525;28;20248;-69
2021/08/06 03:34:41;;;;;;;5.93;1.63;;;;;;;;;;10459484;28;20234;-71
2021/08/06 03:39:44;;;;;;;3.33;1.40;;;;;;;;;;10470528;28;20233;-71
2021/08/06 03:44:48;;;;;;;2.80;1.47;;;;;;;;;;10477668;28;20204;-69
2021/08/06 03:49:50;;;;;;;1.33;1.10;;;;;;;;;;10477139;28;20294;-69
2021/08/06 03:54:53;;;;;;;2.60;1.40;;;;;;;;;;10475655;28;20675;-68
2021/08/06 03:59:56;;;;;;;3.43;1.23;;;;;;;;;;10479580;28;20224;-70
2021/08/06 04:04:59;;;;;;;3.63;1.40;;;;;;;;;;10472455;28;20200;-70
2021/08/06 04:10:03;;;;;;;2.87;1.67;;;;;;;;;;10469825;28;20667;-70
2021/08/06 04:15:08;;;;;;;3.20;1.40;;;;;;;;;;10474323;28;20216;-70
2021/08/06 04:20:31;;;;;;;3.80;1.60;;;;;;;;;;10476822;28;20225;-70
2021/08/06 04:25:34;;;;;;;2.87;1.40;;;;;;;;;;10464271;28;20288;-71
2021/08/06 04:30:38;;;;;;;2.50;1.40;;;;;;;;;;10480490;28;20589;-69
2021/08/06 04:35:41;;;;;;;2.33;1.20;;;;;;;;;;10483719;28;20223;-70
2021/08/06 04:40:46;;;;;;;2.87;1.40;;;;;;;;;;10467468;28;20217;-70
2021/08/06 04:45:50;;;;;;;3.43;1.20;;;;;;;;;;10466529;28;20901;-70
2021/08/06 04:50:53;;;;;;;3.37;1.37;;;;;;;;;;10479253;28;20307;-71
2021/08/06 04:55:55;;;;;;;2.53;1.37;;;;;;;;;;10482714;28;20216;-70
2021/08/06 05:00:59;;;;;;;3.23;1.57;;;;;;;;;;10472164;28;20220;-70
2021/08/06 05:06:03;;;;;;;2.70;1.37;;;;;;;;;;10454310;28;20205;-71
2021/08/06 05:11:05;;;;;;;2.30;1.40;;;;;;;;;;10450534;28;20208;-70
2021/08/06 05:16:09;;;;;;;3.40;1.37;;;;;;;;;;10468626;28;20199;-71
2021/08/06 05:21:12;;;;;;;3.30;1.47;;;;;;;;;;10478915;28;20608;-69
2021/08/06 05:26:16;;;;;;;2.27;1.40;;;;;;;;;;10473411;28;20201;-70
2021/08/06 05:31:20;;;;;;;3.73;1.60;;;;;;;;;;10483434;28;20212;-69
2021/08/06 05:36:23;;;;;;;4.03;1.70;;;;;;;;;;10482478;28;20211;-70
2021/08/06 05:41:25;;;;;;;2.97;1.73;;;;;;;;;;10462752;28;20283;-71
2021/08/06 05:46:29;;;;;;;3.67;1.50;;;;;;;;;;10469223;28;20304;-70
2021/08/06 05:51:31;;;;;;;4.70;1.80;;;;;;;;;;10477658;28;20850;-71
2021/08/06 05:56:34;;;;;;;4.93;1.60;;;;;;;;;;10483443;28;20265;-70
2021/08/06 06:01:38;;;;;;;4.27;1.93;;;;;;;;;;10477647;28;20193;-72
2021/08/06 06:06:41;;;;;;;3.77;1.70;;;;;;;;;;10460505;28;20272;-67
2021/08/06 06:11:43;;;;;;;4.00;1.60;;;;;;;;;;10470225;28;20199;-71
2021/08/06 06:16:47;;;;;;;7.70;2.07;;;;;;;;;;10469608;28;20217;-72
2021/08/06 06:21:50;;;;;;;5.00;1.90;;;;;;;;;;10447919;28;20189;-71
2021/08/06 06:26:52;;;;;;;3.33;1.73;;;;;;;;;;10460265;28;20541;-71
2021/08/06 06:31:56;;;;;;;4.13;1.80;;;;;;;;;;10458054;28;20204;-70
2021/08/06 06:37:00;;;;;;;6.73;1.90;;;;;;;;;;10437462;28;20704;-71
2021/08/06 06:42:03;;;;;;;3.60;1.77;;;;;;;;;;10436673;28;20339;-70
2021/08/06 06:47:07;;;;;;;6.17;2.13;;;;;;;;;;10437485;28;20242;-71
2021/08/06 06:52:10;;;;;;;3.50;1.83;;;;;;;;;;10436983;28;20731;-69
2021/08/06 06:57:12;;;;;;;4.47;1.70;;;;;;;;;;10452579;28;20221;-68
2021/08/06 07:02:16;;;;;;;4.87;1.70;;;;;;;;;;10467574;28;20224;-71
2021/08/06 07:07:18;;;;;;;3.90;1.80;;;;;;;;;;10454734;28;20223;-72
2021/08/06 07:12:21;;;;;;;4.57;1.80;;;;;;;;;;10463396;28;20268;-71
2021/08/06 07:17:25;;;;;;;4.70;2.23;;;;;;;;;;10469260;28;20228;-71
2021/08/06 07:22:27;;;;;;;5.67;2.40;;;;;;;;;;10469793;28;20224;-70
2021/08/06 07:27:30;;;;;;;4.83;2.20;;;;;;;;;;10472241;28;20307;-68
2021/08/06 07:32:34;;;;;;;5.70;2.80;;;;;;;;;;10472052;28;20557;-71
2021/08/06 07:37:37;;;;;;;5.43;2.40;;;;;;;;;;10477862;28;20220;-68
2021/08/06 07:42:40;;;;;;;4.47;2.20;;;;;;;;;;10486405;28;20609;-72
2021/08/06 07:47:44;;;;;;;4.80;2.20;;;;;;;;;;10478259;28;20228;-71
2021/08/06 07:52:47;;;;;;;5.50;1.90;;;;;;;;;;10483545;28;20592;-71
2021/08/06 07:57:50;;;;;;;3.53;1.80;;;;;;;;;;10477521;28;20784;-70
2021/08/06 08:02:55;;;;;;;5.50;2.00;;;;;;;;;;10482773;28;20201;-71
2021/08/06 08:07:58;;;;;;;4.67;1.80;;;;;;;;;;10465662;28;20249;-72
2021/08/06 08:13:00;;;;;;;2.40;1.70;;;;;;;;;;10484137;28;20714;-72
2021/08/06 08:18:04;;;;;;;3.23;1.80;;;;;;;;;;10487251;28;20277;-72
2021/08/06 08:23:07;;;;;;;4.20;2.00;;;;;;;;;;10484541;28;20638;-72
2021/08/06 08:28:09;;;;;;;4.27;2.20;;;;;;;;;;10485521;28;20224;-69
2021/08/06 08:33:15;;;;;;;4.10;2.00;;;;;;;;;;10484807;28;20266;-71
2021/08/06 08:38:18;;;;;;;3.77;1.93;;;;;;;;;;10480540;28;20300;-71
2021/08/06 08:43:20;;;;;;;2.27;1.80;;;;;;;;;;10486098;28;20203;-71
2021/08/06 08:48:24;;;;;;;3.73;1.70;;;;;;;;;;10481319;28;20236;-71
2021/08/06 08:53:27;;;;;;;3.60;1.80;;;;;;;;;;10477210;28;20196;-72
2021/08/06 08:58:30;;;;;;;4.93;1.93;;;;;;;;;;10462196;28;20248;-70
2021/08/06 09:03:37;;;;;;;3.35;1.70;;;;;;;;;;10464261;28;20212;-70
2021/08/06 09:08:40;;;;;;;2.47;1.50;;;;;;;;;;10477987;28;20307;-70
2021/08/06 09:13:42;;;;;;;3.20;1.70;;;;;;;;;;10479179;28;20355;-71
2021/08/06 09:18:46;;;;;;;2.50;1.60;;;;;;;;;;10472990;28;20240;-72
2021/08/06 09:23:50;;;;;;;2.15;1.50;;;;;;;;;;10472712;28;20368;-72
2021/08/06 09:29:04;;;;;;;2.25;1.50;;;;;;;;;;10476117;28;20251;-71
2021/08/06 09:34:12;;;;;;;2.10;1.63;;;;;;;;;;10474011;28;20246;-70
2021/08/06 09:39:15;;;;;;;3.10;1.63;;;;;;;;;;10471720;28;20267;-72
2021/08/06 09:44:38;;;;;;;2.92;1.60;;;;;;;;;;10480118;28;20201;-72
2021/08/06 09:49:49;;;;;;;1.55;1.33;;;;;;;;;;10472951;28;20274;-72
2021/08/06 09:54:52;;;;;;;2.38;1.42;;;;;;;;;;10472851;28;20220;-72
2021/08/06 09:59:55;;;;;;;2.38;1.40;;;;;;;;;;10471719;28;20205;-72
2021/08/06 10:05:01;;;;;;;3.30;1.48;;;;;;;;;;10475726;28;20276;-72
2021/08/06 10:10:05;;;;;;;2.35;1.50;;;;;;;;;;10468546;28;20253;-71
2021/08/06 10:15:08;;;;;;;2.58;1.67;;;;;;;;;;10470668;28;20670;-72
2021/08/06 10:20:13;;;;;;;3.53;1.58;;;;;;;;;;10465678;28;20387;-72
2021/08/06 10:25:19;;;;;;;2.85;1.60;;;;;;;;;;10458424;28;20207;-73
2021/08/06 10:30:23;;;;;;;3.40;1.40;;;;;;;;;;10466678;28;20774;-73
2021/08/06 10:35:40;;;;;;;2.13;1.30;;;;;;;;;;10469507;28;20196;-71
2021/08/06 10:41:12;;;;;;;1.73;1.48;;;;;;;;;;10479125;28;20250;-72
2021/08/06 10:46:17;;;;;;;3.00;1.73;;;;;;;;;;10469896;28;20621;-72
2021/08/06 10:51:29;;;;;;;4.32;1.65;;;;;;;;;;10465454;28;20223;-73
2021/08/06 10:56:33;;;;;;;2.10;1.42;;;;;;;;;;10471521;28;20366;-73
2021/08/06 11:01:36;;;;;;;2.38;1.60;;;;;;;;;;10467173;28;20204;-73
2021/08/06 11:06:41;;;;;;;2.70;1.48;;;;;;;;;;10472627;28;20220;-72
2021/08/06 11:11:48;;;;;;;3.00;1.92;;;;;;;;;;10478464;28;20634;-73
2021/08/06 11:17:01;;;;;;;4.25;1.70;;;;;;;;;;10475335;28;20219;-72
2021/08/06 11:22:07;;;;;;;2.70;1.60;;;;;;;;;;10486074;28;20205;-73
2021/08/06 11:27:10;;;;;;;2.78;1.55;;;;;;;;;;10477091;28;20295;-72
2021/08/06 11:32:13;;;;;;;2.60;1.50;;;;;;;;;;10477102;28;20189;-73
2021/08/06 11:37:17;;;;;;;2.10;1.60;;;;;;;;;;10482728;28;20554;-72
2021/08/06 11:42:24;;;;;;;2.17;1.15;;;;;;;;;;10468944;28;20202;-72
2021/08/06 11:47:40;;;;;;;2.55;1.50;;;;;;;;;;10469999;28;20216;-74
2021/08/06 11:52:46;;;;;;;2.05;1.50;;;;;;;;;;10472431;28;20197;-71
2021/08/06 11:57:51;;;;;;;2.63;1.70;;;;;;;;;;10462968;28;20209;-73
2021/08/06 12:03:07;;;;;;;2.67;1.70;;;;;;;;;;10479549;28;20274;-72
2021/08/06 12:08:18;;;;;;;3.72;1.60;;;;;;;;;;10468078;28;20216;-73
2021/08/06 12:13:23;;;;;;;2.38;1.38;;;;;;;;;;10483873;28;20222;-72
2021/08/06 12:18:25;;;;;;;3.50;1.45;;;;;;;;;;10490102;28;20220;-73
2021/08/06 12:23:29;;;;;;;2.70;1.60;;;;;;;;;;10469505;28;20196;-71
2021/08/06 12:28:32;;;;;;;3.92;1.67;;;;;;;;;;10473577;28;20212;-72
2021/08/06 12:33:35;;;;;;;3.85;1.70;;;;;;;;;;10477694;28;20707;-72
2021/08/06 12:38:39;;;;;;;2.58;1.60;;;;;;;;;;10486006;28;20235;-72
2021/08/06 12:43:41;;;;;;;3.03;1.73;;;;;;;;;;10479553;28;20200;-74
2021/08/06 12:49:03;;;;;;;2.78;1.58;;;;;;;;;;10481651;28;20235;-73
2021/08/06 12:54:27;;;;;;;2.33;1.20;;;;;;;;;;10473047;28;20576;-73
2021/08/06 12:59:30;;;;;;;1.63;1.25;;;;;;;;;;10474515;28;20204;-76
2021/08/06 13:04:33;;;;;;;3.70;1.58;;;;;;;;;;10474447;28;20247;-72
2021/08/06 13:09:41;;;;;;;2.63;1.40;;;;;;;;;;10477931;28;20216;-74
2021/08/06 13:14:45;;;;;;;3.83;1.60;;;;;;;;;;10472978;28;20189;-72
2021/08/06 13:19:47;;;;;;;2.13;1.20;;;;;;;;;;10471833;28;20308;-72
2021/08/06 13:24:51;;;;;;;3.97;1.40;;;;;;;;;;10462321;28;20195;-70
2021/08/06 13:29:54;;;;;;;3.28;1.70;;;;;;;;;;10467824;28;20570;-73
2021/08/06 13:34:56;;;;;;;2.92;1.52;;;;;;;;;;10468966;28;20200;-72
2021/08/06 13:40:00;;;;;;;1.95;1.30;;;;;;;;;;10471814;28;20239;-73
2021/08/06 13:45:03;;;;;;;3.42;1.55;;;;;;;;;;10480341;28;20301;-72
2021/08/06 13:50:06;;;;;;;4.40;1.63;;;;;;;;;;10486529;28;20967;-73
2021/08/06 13:55:10;;;;;;;2.28;1.30;;;;;;;;;;10478325;28;20279;-72
2021/08/06 14:00:13;;;;;;;2.85;1.45;;;;;;;;;;10481417;28;20216;-72
2021/08/06 14:05:16;;;;;;;2.42;1.40;;;;;;;;;;10470389;28;20672;-73
2021/08/06 14:10:20;;;;;;;2.58;1.40;;;;;;;;;;10458888;28;20646;-71
2021/08/06 14:15:22;;;;;;;2.60;1.40;;;;;;;;;;10483331;28;20204;-73
2021/08/06 14:20:25;;;;;;;3.60;1.40;;;;;;;;;;10477797;28;20221;-72
2021/08/06 14:25:29;;;;;;;2.97;1.50;;;;;;;;;;10469750;28;20577;-73
2021/08/06 14:30:31;;;;;;;4.47;1.98;;;;;;;;;;10468110;28;20715;-71
2021/08/06 14:35:35;;;;;;;2.90;1.25;;;;;;;;;;10479027;28;20204;-72
2021/08/06 14:40:39;;;;;;;4.40;1.50;;;;;;;;;;10472815;28;20851;-71
2021/08/06 14:45:42;;;;;;;3.58;1.30;;;;;;;;;;10464530;28;20200;-73
2021/08/06 14:50:44;;;;;;;4.22;1.42;;;;;;;;;;10477359;28;20204;-72
2021/08/06 14:55:48;;;;;;;2.58;1.40;;;;;;;;;;10479039;28;20292;-76
2021/08/06 15:00:51;;;;;;;5.13;2.17;;;;;;;;;;10484686;28;20283;-70
2021/08/06 15:05:55;;;;;;;3.72;1.65;;;;;;;;;;10474641;28;20211;-72
2021/08/06 15:10:59;;;;;;;5.55;1.80;;;;;;;;;;10487090;28;20302;-70
2021/08/06 15:16:01;;;;;;;3.00;1.70;;;;;;;;;;10483947;28;20211;-73
2021/08/06 15:21:04;;;;;;;3.88;1.80;;;;;;;;;;10479902;28;20552;-72
2021/08/06 15:26:08;;;;;;;2.90;1.70;;;;;;;;;;10481655;28;20196;-72
2021/08/06 15:31:12;;;;;;;2.80;1.63;;;;;;;;;;10476912;28;20208;-72
2021/08/06 15:36:15;;;;;;;3.25;1.50;;;;;;;;;;10482304;28;20193;-71
2021/08/06 15:41:19;;;;;;;2.28;1.40;;;;;;;;;;10480618;28;20322;-72
2021/08/06 15:46:21;;;;;;;3.88;1.70;;;;;;;;;;10480259;28;20650;-71
2021/08/06 15:51:24;;;;;;;1.55;1.30;;;;;;;;;;10475453;28;20217;-72
2021/08/06 15:56:28;;;;;;;1.67;1.23;;;;;;;;;;10486739;28;20308;-73
2021/08/06 16:01:32;;;;;;;2.70;1.45;;;;;;;;;;10479348;28;20230;-73
2021/08/06 16:06:35;;;;;;;3.20;1.60;;;;;;;;;;10477779;28;20292;-73
2021/08/06 16:11:39;;;;;;;3.63;1.50;;;;;;;;;;10486870;28;20636;-73
2021/08/06 16:16:42;;;;;;;3.00;1.30;;;;;;;;;;10478592;28;20231;-72
2021/08/06 16:21:44;;;;;;;3.70;1.35;;;;;;;;;;10484635;28;20193;-72
2021/08/06 16:26:48;;;;;;;3.05;1.65;;;;;;;;;;10486121;28;20232;-70
2021/08/06 16:31:51;;;;;;;3.17;1.58;;;;;;;;;;10479893;28;20216;-72
2021/08/06 16:36:53;;;;;;;3.35;1.70;;;;;;;;;;10485804;28;20277;-72
2021/08/06 16:41:58;;;;;;;6.15;1.75;;;;;;;;;;10479120;28;20193;-72
2021/08/06 16:47:00;;;;;;;3.67;1.65;;;;;;;;;;10479229;28;20779;-71
2021/08/06 16:52:03;;;;;;;3.97;1.70;;;;;;;;;;10484347;28;20291;-70
2021/08/06 16:57:07;;;;;;;4.75;1.55;;;;;;;;;;10483632;28;20220;-73
2021/08/06 17:02:10;;;;;;;3.83;1.80;;;;;;;;;;10479966;28;20259;-71
2021/08/06 17:07:13;;;;;;;3.00;1.60;;;;;;;;;;10475435;28;20252;-72
2021/08/06 17:12:17;;;;;;;3.55;1.70;;;;;;;;;;10489272;28;20205;-71
2021/08/06 17:17:19;;;;;;;3.78;1.85;;;;;;;;;;10461014;28;20311;-72
2021/08/06 17:22:22;;;;;;;4.72;1.90;;;;;;;;;;10476467;28;20731;-69
2021/08/06 17:27:26;;;;;;;4.15;1.75;;;;;;;;;;10475225;28;20217;-71
2021/08/06 17:32:29;;;;;;;5.88;2.42;;;;;;;;;;10477360;28;20303;-73
2021/08/06 17:37:31;;;;;;;6.38;2.45;;;;;;;;;;10487180;28;20220;-70
2021/08/06 17:42:35;;;;;;;4.90;2.10;;;;;;;;;;10477476;28;20203;-69
2021/08/06 17:47:38;;;;;;;4.37;1.80;;;;;;;;;;10473743;28;20292;-70
2021/08/06 17:52:41;;;;;;;4.10;1.80;;;;;;;;;;10480413;28;20234;-71
2021/08/06 17:57:45;;;;;;;4.72;2.00;;;;;;;;;;10480410;28;20212;-71
2021/08/06 18:02:48;;;;;;;4.40;1.90;;;;;;;;;;10478174;28;20196;-69
2021/08/06 18:07:50;;;;;;;3.83;1.87;;;;;;;;;;10480105;28;20212;-69
2021/08/06 18:12:55;;;;;;;5.10;2.10;;;;;;;;;;10481977;28;20299;-69
2021/08/06 18:17:58;;;;;;;4.93;2.10;;;;;;;;;;10479563;28;20303;-69
2021/08/06 18:23:01;;;;;;;6.80;3.03;;;;;;;;;;10471680;28;20283;-70
2021/08/06 18:28:05;;;;;;;4.53;2.10;;;;;;;;;;10476421;28;20314;-71
2021/08/06 18:33:07;;;;;;;4.27;2.27;;;;;;;;;;10474952;28;20226;-69
2021/08/06 18:38:10;;;;;;;4.17;2.10;;;;;;;;;;10477493;28;20220;-70
2021/08/06 18:43:14;;;;;;;8.10;2.80;;;;;;;;;;10470619;28;20945;-69
2021/08/06 18:48:16;;;;;;;4.57;2.37;;;;;;;;;;10475615;28;20305;-69
2021/08/06 18:53:19;;;;;;;14.03;8.03;;;;;;;;;;10472789;28;20213;-69
2021/08/06 18:58:23;;;;;;;9.80;4.83;;;;;;;;;;10483261;28;20212;-69
2021/08/06 19:03:25;;;;;;;7.43;2.80;;;;;;;;;;10473493;28;20617;-69
2021/08/06 19:08:28;;;;;;;7.27;3.57;;;;;;;;;;10474682;28;20246;-69
2021/08/06 19:13:34;;;;;;;8.47;2.90;;;;;;;;;;10473983;28;20299;-70
2021/08/06 19:18:37;;;;;;;6.17;2.87;;;;;;;;;;10473532;28;20221;-70
2021/08/06 19:23:39;;;;;;;8.43;3.60;;;;;;;;;;10472280;28;20679;-69
2021/08/06 19:28:43;;;;;;;10.80;5.47;;;;;;;;;;10478564;28;20518;-69
2021/08/06 19:33:47;;;;;;;7.93;2.93;;;;;;;;;;10471171;28;20209;-70
2021/08/06 19:38:50;;;;;;;7.43;3.50;;;;;;;;;;10485749;28;20222;-70
2021/08/06 19:43:54;;;;;;;9.93;6.03;;;;;;;;;;10485294;28;20192;-69
2021/08/06 19:48:56;;;;;;;7.73;3.20;;;;;;;;;;10491298;28;20277;-71
2021/08/06 19:53:59;;;;;;;9.53;4.60;;;;;;;;;;10485191;28;20312;-70
2021/08/06 19:59:03;;;;;;;8.00;3.63;;;;;;;;;;10489370;28;20242;-70
2021/08/06 20:04:06;;;;;;;16.03;10.03;;;;;;;;;;10490974;28;20663;-71
2021/08/06 20:09:10;;;;;;;8.60;4.10;;;;;;;;;;10481967;28;20731;-69
2021/08/06 20:14:14;;;;;;;8.83;3.90;;;;;;;;;;10479778;28;20265;-69
2021/08/06 20:19:17;;;;;;;13.33;8.77;;;;;;;;;;10487949;28;20717;-69
2021/08/06 20:24:20;;;;;;;14.93;7.33;;;;;;;;;;10489060;28;20281;-69
2021/08/06 20:29:24;;;;;;;8.97;5.10;;;;;;;;;;10484345;28;20213;-73
2021/08/06 20:34:26;;;;;;;8.23;3.97;;;;;;;;;;10488856;28;20231;-72
2021/08/06 20:39:29;;;;;;;7.17;3.10;;;;;;;;;;10482618;28;20616;-72
2021/08/06 20:44:32;;;;;;;22.00;14.73;;;;;;;;;;10484305;28;20544;-70
2021/08/06 20:49:35;;;;;;;18.40;12.77;;;;;;;;;;10478548;28;20228;-71
2021/08/06 20:54:37;;;;;;;14.03;8.40;;;;;;;;;;10466150;28;20188;-71
2021/08/06 20:59:41;;;;;;;14.23;8.13;;;;;;;;;;10464717;28;20213;-72
2021/08/06 21:04:44;;;;;;;9.87;5.40;;;;;;;;;;10463334;28;20276;-71
2021/08/06 21:09:46;;;;;;;8.07;3.93;;;;;;;;;;10473631;28;20213;-72
2021/08/06 21:14:50;;;;;;;9.57;4.27;;;;;;;;;;10476400;28;20193;-71
2021/08/06 21:19:53;;;;;;;10.80;6.60;;;;;;;;;;10466860;28;20228;-73
2021/08/06 21:24:55;;;;;;;21.57;14.73;;;;;;;;;;10480313;28;20287;-72
2021/08/06 21:29:59;;;;;;;12.43;5.80;;;;;;;;;;10472662;28;20251;-69
2021/08/06 21:35:01;;;;;;;12.00;6.40;;;;;;;;;;10472709;28;20269;-71
2021/08/06 21:40:05;;;;;;;11.63;4.87;;;;;;;;;;10479062;28;20217;-71
2021/08/06 21:45:10;;;;;;;9.70;4.00;;;;;;;;;;10464544;28;20188;-71
2021/08/06 21:50:12;;;;;;;18.23;11.23;;;;;;;;;;10472371;28;20270;-71
2021/08/06 21:55:15;;;;;;;11.20;6.93;;;;;;;;;;10483523;28;20544;-71
2021/08/06 22:00:19;;;;;;;18.00;11.20;;;;;;;;;;10468568;28;20232;-70
2021/08/06 22:05:21;;;;;;;12.37;8.20;;;;;;;;;;10462250;28;20200;-72
2021/08/06 22:10:24;;;;;;;9.07;4.23;;;;;;;;;;10476705;28;20591;-71
2021/08/06 22:15:28;;;;;;;8.47;4.43;;;;;;;;;;10479783;28;20234;-72
2021/08/06 22:20:31;;;;;;;7.63;4.53;;;;;;;;;;10476307;28;20216;-71
2021/08/06 22:25:34;;;;;;;9.63;4.67;;;;;;;;;;10472161;28;20201;-72
2021/08/06 22:30:38;;;;;;;9.37;4.57;;;;;;;;;;10470831;28;20215;-73
2021/08/06 22:35:41;;;;;;;7.87;4.10;;;;;;;;;;10474053;28;20671;-71
2021/08/06 22:40:43;;;;;;;17.70;12.97;;;;;;;;;;10480689;28;20302;-71
2021/08/06 22:45:47;;;;;;;10.90;4.80;;;;;;;;;;10463102;28;20380;-72
2021/08/06 22:50:50;;;;;;;13.83;8.33;;;;;;;;;;10464730;28;20258;-72
2021/08/06 22:55:52;;;;;;;10.53;5.63;;;;;;;;;;10475123;28;20201;-72
2021/08/06 23:00:56;;;;;;;9.63;4.57;;;;;;;;;;10467504;28;20204;-71
2021/08/06 23:05:59;;;;;;;9.23;4.00;;;;;;;;;;10468630;28;20283;-72
2021/08/06 23:11:02;;;;;;;10.90;5.00;;;;;;;;;;10478554;28;20220;-72
2021/08/06 23:16:06;;;;;;;8.20;4.20;;;;;;;;;;10482219;28;20204;-70
2021/08/06 23:21:09;;;;;;;8.40;4.10;;;;;;;;;;10489032;28;20651;-70
2021/08/06 23:26:11;;;;;;;9.77;3.83;;;;;;;;;;10472719;28;20275;-70
2021/08/06 23:31:15;;;;;;;8.27;4.10;;;;;;;;;;10473122;28;20589;-70
2021/08/06 23:36:18;;;;;;;8.60;4.53;;;;;;;;;;10480132;28;20226;-70
2021/08/06 23:41:20;;;;;;;8.47;4.10;;;;;;;;;;10481768;28;20279;-71
2021/08/06 23:46:24;;;;;;;10.13;4.73;;;;;;;;;;10478930;28;20261;-71
2021/08/06 23:51:27;;;;;;;8.67;4.53;;;;;;;;;;10479434;28;20285;-72
2021/08/06 23:56:29;;;;;;;10.93;4.47;;;;;;;;;;10479465;28;20509;-71
